This is the latest recevied weather packets stored in our database for station/object N0RRC. If no packets are shown the sender has not sent any weather packets the latest 10 day(s).
| Time | Temp. | Humidity | Pressure | Rain* | Wind** | Luminosity | Snow |
|---|---|---|---|---|---|---|---|
| 1777477616 | 6.67° C | 84% | 1014.1 hPa | 0 mm | - | 72 W/m² | - |
| 1777474616 | 7.22° C | 82% | 1013.8 hPa | 0 mm | - | 161 W/m² | - |
| 1777469216 | 6.11° C | 85% | 1013.6 hPa | 0 mm | - | 169 W/m² | - |
| 1777462616 | 6.67° C | 83% | 1013.4 hPa | 0 mm | - | 26 W/m² | - |
| 1777460216 | 7.22° C | 79% | 1013.1 hPa | 0 mm | - | 0 W/m² | - |
| 1777456016 | 7.22° C | 75% | 1013.2 hPa | 0 mm | - | 0 W/m² | - |
| 1777454836 | 7.22° C | 75% | 1013 hPa | 0 mm | - | 0 W/m² | - |
| 1777453615 | 7.78° C | 74% | 1013.2 hPa | 0 mm | - | 0 W/m² | - |
| 1777452416 | 7.78° C | 74% | 1013.2 hPa | 0 mm | - | 0 W/m² | - |
| 1777450017 | 7.78° C | 75% | 1012.9 hPa | 0 mm | - | 0 W/m² | - |
| 1777445216 | 11.67° C | 67% | 1012.6 hPa | 0 mm | - | 0 W/m² | - |
| 1777440437 | 11.67° C | 67% | 1012.8 hPa | 0 mm | - | 0 W/m² | - |
| 1777437457 | 12.22° C | 63% | 1012.9 hPa | 0 mm | - | 0 W/m² | - |
| 1777432016 | 12.78° C | 61% | 1012.5 hPa | 0 mm | - | 0 W/m² | - |
| 1777429016 | 12.78° C | 62% | 1012.4 hPa | 0 mm | - | 0 W/m² | - |
| 1777424215 | 14.44° C | 58% | 1011.9 hPa | 0 mm | - | 0 W/m² | - |
| 1777422415 | 15° C | 57% | 1011.7 hPa | 0 mm | - | 35 W/m² | - |
| 1777413417 | 16.11° C | 56% | 1011.5 hPa | 0 mm | - | 294 W/m² | - |
| 1777412817 | 16.11° C | 57% | 1011.6 hPa | 0 mm | - | 273 W/m² | - |
| 1777412217 | 16.11° C | 58% | 1011.5 hPa | 0 mm | - | 431 W/m² | - |
| 1777408017 | 15.56° C | 61% | 1012.1 hPa | 0 mm | - | 476 W/m² | - |
| 1777406217 | 16.11° C | 66% | 1012.4 hPa | 0 mm | - | 803 W/m² | - |
* Rain latest hour (hover to see other rain measurements)
** Current wind speed in m/s (hover to see current wind gust speed)